Center — 9HA2615 — position and weather

sailwx.info

Track history (hours):
 
Tides and Currents Weather Stations Pressure Air Temp Water Temp Dewpoint Dewpoint Depression Visibility Wind Speed Wind Dir Waves Ship Positions

Center

Last reported at 2016-Jan-28 11:34 UTC. Time now 2016-Feb-11 15:08 UTC.
Position N 31°01' W 121°15'.
Warning: this ship's position is 14 days out of date.

Length 274 m; draft 16.5 m.

Type: Tanker. MMSI: 215030000.

Date/timePositionNaut miles runAvg speedWind from/ knotsBaromVisibWave heightAir tempDewpointWater temp
2016-Jan-28 11:34N 31°01' W 121°15'3411.0
2016-Jan-28 08:26N 31°00' W 120°35'1011.1
2016-Jan-28 07:33N 31°00' W 120°24'1111.0
2016-Jan-28 06:33N 30°60' W 120°11'1110.7
2016-Jan-28 05:33N 30°60' W 119°58'1111.1
2016-Jan-28 04:32N 31°00' W 119°45'1111.4
2016-Jan-28 03:33N 31°00' W 119°32'4611.4
2016-Jan-27 23:33N 31°04' W 118°39'1111.1
2016-Jan-27 22:33N 31°05' W 118°26'1110.8
2016-Jan-27 21:33N 31°05' W 118°13'4 0.5
2016-Jan-27 12:32N 31°06' W 118°18'3 3.0
2016-Jan-27 11:33N 31°08' W 118°21'3 2.8
2016-Jan-27 10:34N 31°10' W 118°23'2 2.2
2016-Jan-27 09:32N 31°11' W 118°25'2 2.1
2016-Jan-27 08:34N 31°12' W 118°27'2 2.1
2016-Jan-27 07:33N 31°14' W 118°29'2 2.3
2016-Jan-27 06:33N 31°15' W 118°31'2 2.1
2016-Jan-27 05:33N 31°17' W 118°33'2 1.8
2016-Jan-27 04:33N 31°18' W 118°35'3 2.4
2016-Jan-27 03:25N 31°19' W 118°38'2 2.2
2016-Jan-27 02:25N 31°21' W 118°39'2 2.3
2016-Jan-27 01:32N 31°22' W 118°41'3 2.4
2016-Jan-27 00:18N 31°24' W 118°44'13 3.2
2016-Jan-26 20:21N 31°30' W 118°57'1 1.8
2016-Jan-26 19:33N 31°31' W 118°58'2 1.8
2016-Jan-26 18:33N 31°32' W 119°00'2 2.0
2016-Jan-26 17:34N 31°34' W 119°02'2 1.6
2016-Jan-26 16:34N 31°35' W 119°03'2 2.1
2016-Jan-26 15:34N 31°36' W 119°05'2 2.0
2016-Jan-26 14:33N 31°38' W 119°06'2 1.9
2016-Jan-26 13:34N 31°39' W 119°08'2 2.2
2016-Jan-26 12:34N 31°41' W 119°10'2 1.6
2016-Jan-26 11:32N 31°42' W 119°11'2 1.7
2016-Jan-26 10:32N 31°42' W 119°13'2 2.3
2016-Jan-26 09:34N 31°43' W 119°15'2 2.2
2016-Jan-26 08:33N 31°44' W 119°18'2 1.7
2016-Jan-26 07:34N 31°45' W 119°20'2 2.2
2016-Jan-26 06:34N 31°46' W 119°22'2 2.3
2016-Jan-26 05:34N 31°48' W 119°24'2 2.4
2016-Jan-26 04:33N 31°50' W 119°26'2 2.5
2016-Jan-26 03:34N 31°51' W 119°28'3 2.2
2016-Jan-26 02:25N 31°53' W 119°30'2 2.0
2016-Jan-26 01:34N 31°54' W 119°32'3 2.2
2016-Jan-26 00:09N 31°56' W 119°35'4 2.7
2016-Jan-25 22:33N 31°59' W 119°38'4 4.3
2016-Jan-25 21:34N 32°01' W 119°42'6 5.5
2016-Jan-25 20:32N 32°05' W 119°47'47 1.1
2016-Jan-24 01:33N 31°37' W 119°02'15 0.9
2016-Jan-23 08:33N 31°50' W 119°11'12 9.2
2016-Jan-23 07:17N 31°46' W 118°58'810.8
2016-Jan-23 06:33N 31°43' W 118°50'1111.1
2016-Jan-23 05:33N 31°39' W 118°37'1211.5
2016-Jan-23 04:33N 31°35' W 118°25'1211.7
2016-Jan-23 03:33N 31°31' W 118°12'1211.9
2016-Jan-23 02:33N 31°27' W 117°59'5 5.3
2016-Jan-23 01:33N 31°25' W 117°53'2 2.2
2016-Jan-23 00:32N 31°25' W 117°56'1 1.0
2016-Jan-22 23:33N 31°25' W 117°57'2 1.7
2016-Jan-22 22:33N 31°25' W 117°59'2 2.4
2016-Jan-22 21:31N 31°26' W 118°01'7 2.3
2016-Jan-22 18:31N 31°29' W 118°09'8 2.4
2016-Jan-22 15:12N 31°32' W 118°17'2 2.4
2016-Jan-22 14:27N 31°33' W 118°19'3 2.3
2016-Jan-22 13:17N 31°35' W 118°21'2 2.4
2016-Jan-22 12:33N 31°36' W 118°23'2 2.4
2016-Jan-22 11:33N 31°37' W 118°26'3 2.8
2016-Jan-22 10:33N 31°38' W 118°29'2 2.4
2016-Jan-22 09:33N 31°39' W 118°31'2 2.2
2016-Jan-22 08:33N 31°40' W 118°34'2 2.1
2016-Jan-22 07:33N 31°41' W 118°36'2 1.9
2016-Jan-22 06:33N 31°41' W 118°38'2 2.1
2016-Jan-22 05:33N 31°42' W 118°40'2 2.1
2016-Jan-22 04:33N 31°43' W 118°42'2 2.2
2016-Jan-22 03:33N 31°44' W 118°45'2 2.1
2016-Jan-22 02:33N 31°46' W 118°47'2 2.1
2016-Jan-22 01:33N 31°47' W 118°48'3 2.6
2016-Jan-22 00:33N 31°49' W 118°51'3 2.6
2016-Jan-21 23:33N 31°50' W 118°53'3 2.7
2016-Jan-21 22:33N 31°51' W 118°56'2 2.3
2016-Jan-21 21:33N 31°52' W 118°59'2 2.2
2016-Jan-21 20:33N 31°53' W 119°01'4 2.2
2016-Jan-21 18:33N 31°56' W 119°05'5 4.3
2016-Jan-21 17:29N 31°59' W 119°09'5 4.9
2016-Jan-21 16:33N 32°02' W 119°13'3 3.1
2016-Jan-21 15:33N 32°05' W 119°15'2 1.6
2016-Jan-21 14:28N 32°06' W 119°14'1 1.3
2016-Jan-21 13:31N 32°06' W 119°15'2 1.9
2016-Jan-21 12:31N 32°06' W 119°17'2 2.1
2016-Jan-21 11:32N 32°06' W 119°20'1 1.3
2016-Jan-21 10:26N 32°05' W 119°21'1 1.4
2016-Jan-21 09:32N 32°05' W 119°23'1 1.3
2016-Jan-21 08:32N 32°06' W 119°24'2 1.6
2016-Jan-21 07:32N 32°06' W 119°26'2 1.5
2016-Jan-21 06:29N 32°06' W 119°28'5 1.4
2016-Jan-21 03:14N 32°06' W 119°33'1 1.3
2016-Jan-21 02:26N 32°06' W 119°35'10 3.0
2016-Jan-20 23:10N 31°57' W 119°33'8 9.6
2016-Jan-20 22:21N 31°51' W 119°27'30 1.3
2016-Jan-19 22:32N 32°03' W 118°54'1010.7
2016-Jan-19 21:33N 32°01' W 118°42'1 1.0
2016-Jan-19 20:23N 32°01' W 118°40'32 1.0
2016-Jan-18 13:18N 31°57' W 119°18'  
Track history (hours):
 
Tides and Currents Weather Stations Pressure Air Temp Water Temp Dewpoint Dewpoint Depression Visibility Wind Speed Wind Dir Waves Ship Positions

Center

Last reported at 2016-Jan-28 11:34 UTC. Time now 2016-Feb-11 15:08 UTC.
Position N 31°01' W 121°15'.
Warning: this ship's position is 14 days out of date.

Length 274 m; draft 16.5 m.

Type: Tanker. MMSI: 215030000.

Date/timePositionNaut miles runAvg speedWind from/ knotsBaromVisibWave heightAir tempDewpointWater temp
2016-Jan-28 11:34N 31°01' W 121°15'3411.0
2016-Jan-28 08:26N 31°00' W 120°35'1011.1
2016-Jan-28 07:33N 31°00' W 120°24'1111.0
2016-Jan-28 06:33N 30°60' W 120°11'1110.7
2016-Jan-28 05:33N 30°60' W 119°58'1111.1
2016-Jan-28 04:32N 31°00' W 119°45'1111.4
2016-Jan-28 03:33N 31°00' W 119°32'4611.4
2016-Jan-27 23:33N 31°04' W 118°39'1111.1
2016-Jan-27 22:33N 31°05' W 118°26'1110.8
2016-Jan-27 21:33N 31°05' W 118°13'4 0.5
2016-Jan-27 12:32N 31°06' W 118°18'3 3.0
2016-Jan-27 11:33N 31°08' W 118°21'3 2.8
2016-Jan-27 10:34N 31°10' W 118°23'2 2.2
2016-Jan-27 09:32N 31°11' W 118°25'2 2.1
2016-Jan-27 08:34N 31°12' W 118°27'2 2.1
2016-Jan-27 07:33N 31°14' W 118°29'2 2.3
2016-Jan-27 06:33N 31°15' W 118°31'2 2.1
2016-Jan-27 05:33N 31°17' W 118°33'2 1.8
2016-Jan-27 04:33N 31°18' W 118°35'3 2.4
2016-Jan-27 03:25N 31°19' W 118°38'2 2.2
2016-Jan-27 02:25N 31°21' W 118°39'2 2.3
2016-Jan-27 01:32N 31°22' W 118°41'3 2.4
2016-Jan-27 00:18N 31°24' W 118°44'13 3.2
2016-Jan-26 20:21N 31°30' W 118°57'1 1.8
2016-Jan-26 19:33N 31°31' W 118°58'2 1.8
2016-Jan-26 18:33N 31°32' W 119°00'2 2.0
2016-Jan-26 17:34N 31°34' W 119°02'2 1.6
2016-Jan-26 16:34N 31°35' W 119°03'2 2.1
2016-Jan-26 15:34N 31°36' W 119°05'2 2.0
2016-Jan-26 14:33N 31°38' W 119°06'2 1.9
2016-Jan-26 13:34N 31°39' W 119°08'2 2.2
2016-Jan-26 12:34N 31°41' W 119°10'2 1.6
2016-Jan-26 11:32N 31°42' W 119°11'2 1.7
2016-Jan-26 10:32N 31°42' W 119°13'2 2.3
2016-Jan-26 09:34N 31°43' W 119°15'2 2.2
2016-Jan-26 08:33N 31°44' W 119°18'2 1.7
2016-Jan-26 07:34N 31°45' W 119°20'2 2.2
2016-Jan-26 06:34N 31°46' W 119°22'2 2.3
2016-Jan-26 05:34N 31°48' W 119°24'2 2.4
2016-Jan-26 04:33N 31°50' W 119°26'2 2.5
2016-Jan-26 03:34N 31°51' W 119°28'3 2.2
2016-Jan-26 02:25N 31°53' W 119°30'2 2.0
2016-Jan-26 01:34N 31°54' W 119°32'3 2.2
2016-Jan-26 00:09N 31°56' W 119°35'4 2.7
2016-Jan-25 22:33N 31°59' W 119°38'4 4.3
2016-Jan-25 21:34N 32°01' W 119°42'6 5.5
2016-Jan-25 20:32N 32°05' W 119°47'47 1.1
2016-Jan-24 01:33N 31°37' W 119°02'15 0.9
2016-Jan-23 08:33N 31°50' W 119°11'12 9.2
2016-Jan-23 07:17N 31°46' W 118°58'810.8
2016-Jan-23 06:33N 31°43' W 118°50'1111.1
2016-Jan-23 05:33N 31°39' W 118°37'1211.5
2016-Jan-23 04:33N 31°35' W 118°25'1211.7
2016-Jan-23 03:33N 31°31' W 118°12'1211.9
2016-Jan-23 02:33N 31°27' W 117°59'5 5.3
2016-Jan-23 01:33N 31°25' W 117°53'2 2.2
2016-Jan-23 00:32N 31°25' W 117°56'1 1.0
2016-Jan-22 23:33N 31°25' W 117°57'2 1.7
2016-Jan-22 22:33N 31°25' W 117°59'2 2.4
2016-Jan-22 21:31N 31°26' W 118°01'7 2.3
2016-Jan-22 18:31N 31°29' W 118°09'8 2.4
2016-Jan-22 15:12N 31°32' W 118°17'2 2.4
2016-Jan-22 14:27N 31°33' W 118°19'3 2.3
2016-Jan-22 13:17N 31°35' W 118°21'2 2.4
2016-Jan-22 12:33N 31°36' W 118°23'2 2.4
2016-Jan-22 11:33N 31°37' W 118°26'3 2.8
2016-Jan-22 10:33N 31°38' W 118°29'2 2.4
2016-Jan-22 09:33N 31°39' W 118°31'2 2.2
2016-Jan-22 08:33N 31°40' W 118°34'2 2.1
2016-Jan-22 07:33N 31°41' W 118°36'2 1.9
2016-Jan-22 06:33N 31°41' W 118°38'2 2.1
2016-Jan-22 05:33N 31°42' W 118°40'2 2.1
2016-Jan-22 04:33N 31°43' W 118°42'2 2.2
2016-Jan-22 03:33N 31°44' W 118°45'2 2.1
2016-Jan-22 02:33N 31°46' W 118°47'2 2.1
2016-Jan-22 01:33N 31°47' W 118°48'3 2.6
2016-Jan-22 00:33N 31°49' W 118°51'3 2.6
2016-Jan-21 23:33N 31°50' W 118°53'3 2.7
2016-Jan-21 22:33N 31°51' W 118°56'2 2.3
2016-Jan-21 21:33N 31°52' W 118°59'2 2.2
2016-Jan-21 20:33N 31°53' W 119°01'4 2.2
2016-Jan-21 18:33N 31°56' W 119°05'5 4.3
2016-Jan-21 17:29N 31°59' W 119°09'5 4.9
2016-Jan-21 16:33N 32°02' W 119°13'3 3.1
2016-Jan-21 15:33N 32°05' W 119°15'2 1.6
2016-Jan-21 14:28N 32°06' W 119°14'1 1.3
2016-Jan-21 13:31N 32°06' W 119°15'2 1.9
2016-Jan-21 12:31N 32°06' W 119°17'2 2.1
2016-Jan-21 11:32N 32°06' W 119°20'1 1.3
2016-Jan-21 10:26N 32°05' W 119°21'1 1.4
2016-Jan-21 09:32N 32°05' W 119°23'1 1.3
2016-Jan-21 08:32N 32°06' W 119°24'2 1.6
2016-Jan-21 07:32N 32°06' W 119°26'2 1.5
2016-Jan-21 06:29N 32°06' W 119°28'5 1.4
2016-Jan-21 03:14N 32°06' W 119°33'1 1.3
2016-Jan-21 02:26N 32°06' W 119°35'10 3.0
2016-Jan-20 23:10N 31°57' W 119°33'8 9.6
2016-Jan-20 22:21N 31°51' W 119°27'30 1.3
2016-Jan-19 22:32N 32°03' W 118°54'1010.7
2016-Jan-19 21:33N 32°01' W 118°42'1 1.0
2016-Jan-19 20:23N 32°01' W 118°40'32 1.0
2016-Jan-18 13:18N 31°57' W 119°18'  

Dump ship's entire track history